createdAt,value
2022-12-10T00:01:26.509Z,8.22
2022-12-10T00:04:28.349Z,8.88
2022-12-10T00:07:30.212Z,8.65
2022-12-10T00:10:32.045Z,9.22
2022-12-10T00:13:34.862Z,9.64
2022-12-10T00:16:36.831Z,8.24
2022-12-10T00:19:38.875Z,8.56
2022-12-10T00:22:40.853Z,8.17
2022-12-10T00:25:42.699Z,8.63
2022-12-10T00:28:45.328Z,9.06
2022-12-10T00:31:47.247Z,8.72
2022-12-10T00:34:49.144Z,9.11
2022-12-10T00:37:51.084Z,8.91
2022-12-10T00:40:53.074Z,9.00
2022-12-10T00:43:55.200Z,9.13
2022-12-10T00:46:56.995Z,9.38
2022-12-10T00:49:59.001Z,9.25
2022-12-10T00:53:00.938Z,10.14
2022-12-10T00:56:04.362Z,8.72
2022-12-10T00:59:06.305Z,9.11
2022-12-10T01:02:08.309Z,7.70
2022-12-10T01:05:10.216Z,9.18
2022-12-10T01:08:12.154Z,7.67
2022-12-10T01:11:15.127Z,7.36
2022-12-10T01:14:18.574Z,7.98
2022-12-10T01:17:22.373Z,8.64
2022-12-10T01:20:24.335Z,8.58
2022-12-10T01:23:26.168Z,8.77
2022-12-10T01:26:29.461Z,9.59
2022-12-10T01:29:31.483Z,8.34
2022-12-10T01:32:33.332Z,9.59
2022-12-10T01:35:37.353Z,8.57
2022-12-10T01:38:39.419Z,9.05
2022-12-10T01:41:57.796Z,9.95
2022-12-10T01:45:01.809Z,9.34
2022-12-10T01:48:07.992Z,9.93
2022-12-10T01:51:10.770Z,10.05
2022-12-10T01:54:14.722Z,10.21
2022-12-10T01:57:26.329Z,10.17
2022-12-10T02:00:28.116Z,10.21
2022-12-10T02:03:48.614Z,9.96
2022-12-10T02:07:07.837Z,10.50
2022-12-10T02:10:10.019Z,9.91
2022-12-10T02:13:24.263Z,10.05
2022-12-10T02:16:37.566Z,9.38
2022-12-10T02:19:47.297Z,9.50
2022-12-10T02:22:56.604Z,9.44
2022-12-10T02:26:01.532Z,9.68
2022-12-10T02:29:25.445Z,9.93
2022-12-10T02:32:29.116Z,9.61
2022-12-10T02:35:32.123Z,9.69
2022-12-10T02:38:34.661Z,10.23
2022-12-10T02:41:37.164Z,10.40
2022-12-10T02:44:39.105Z,10.34
2022-12-10T02:47:41.028Z,10.18
2022-12-10T02:50:42.855Z,9.60
2022-12-10T02:53:45.127Z,10.16
2022-12-10T02:56:50.028Z,8.41
2022-12-10T02:59:57.963Z,8.11
2022-12-10T03:03:15.773Z,8.28
2022-12-10T03:06:19.536Z,7.58
2022-12-10T03:09:23.823Z,8.79
2022-12-10T03:12:43.335Z,8.95
2022-12-10T03:15:45.172Z,8.23
2022-12-10T03:18:48.718Z,7.80
2022-12-10T03:21:50.612Z,8.01
2022-12-10T03:24:52.503Z,8.31
2022-12-10T03:27:55.333Z,8.23
2022-12-10T03:30:57.256Z,8.94
2022-12-10T03:33:59.200Z,8.85
2022-12-10T03:37:01.327Z,8.17
2022-12-10T03:40:03.997Z,9.05
2022-12-10T03:43:05.830Z,8.24
2022-12-10T03:46:07.825Z,7.62
2022-12-10T03:49:11.179Z,8.68
2022-12-10T03:52:13.257Z,8.49
2022-12-10T03:55:15.245Z,8.32
2022-12-10T03:58:20.331Z,8.39
2022-12-10T04:01:22.665Z,8.78
2022-12-10T04:04:24.820Z,9.57
2022-12-10T04:07:26.691Z,7.96
2022-12-10T04:10:28.524Z,8.00
2022-12-10T04:13:50.604Z,8.16
2022-12-10T04:16:52.721Z,8.64
2022-12-10T04:19:55.761Z,8.99
2022-12-10T04:23:16.479Z,9.87
2022-12-10T04:26:38.683Z,9.78
2022-12-10T04:29:40.623Z,8.88
2022-12-10T04:32:42.512Z,8.29
2022-12-10T04:35:44.353Z,7.46
2022-12-10T04:38:46.210Z,7.02
2022-12-10T04:41:48.720Z,7.90
2022-12-10T04:44:50.550Z,8.04
2022-12-10T04:47:52.390Z,7.89
2022-12-10T04:50:54.180Z,7.47
2022-12-10T04:53:56.162Z,7.66
2022-12-10T04:56:58.151Z,7.56
2022-12-10T05:00:00.262Z,8.35
2022-12-10T05:03:02.219Z,7.78
2022-12-10T05:06:15.625Z,8.27
2022-12-10T05:09:17.546Z,8.86
2022-12-10T05:12:19.377Z,8.46
2022-12-10T05:15:21.260Z,7.95
2022-12-10T05:18:23.060Z,8.01
2022-12-10T05:21:46.293Z,7.35
2022-12-10T05:24:48.115Z,6.67
2022-12-10T05:27:49.910Z,6.89
2022-12-10T05:30:52.239Z,7.65
2022-12-10T05:33:55.000Z,7.14
2022-12-10T05:36:56.961Z,7.17
2022-12-10T05:39:58.864Z,7.69
2022-12-10T05:43:00.832Z,7.25
2022-12-10T05:46:03.061Z,7.41
2022-12-10T05:49:05.670Z,6.83
2022-12-10T05:52:07.548Z,7.42
2022-12-10T05:55:09.629Z,7.65
2022-12-10T05:58:11.482Z,7.59
2022-12-10T06:01:14.522Z,7.37
2022-12-10T06:04:16.407Z,6.61
2022-12-10T06:07:18.387Z,7.32
2022-12-10T06:10:20.289Z,7.80
2022-12-10T06:13:22.249Z,7.56
2022-12-10T06:16:24.699Z,8.01
2022-12-10T06:19:26.602Z,7.31
2022-12-10T06:22:28.431Z,7.02
2022-12-10T06:25:30.322Z,7.57
2022-12-10T06:28:32.144Z,7.08
2022-12-10T06:31:34.114Z,8.09
2022-12-10T06:34:41.265Z,6.97
2022-12-10T06:37:44.690Z,7.32
2022-12-10T06:40:46.574Z,7.52
2022-12-10T06:43:48.899Z,7.36
2022-12-10T06:46:50.784Z,7.28
2022-12-10T06:49:52.690Z,7.27
2022-12-10T06:52:55.193Z,7.95
2022-12-10T06:55:58.880Z,7.74
2022-12-10T06:59:00.684Z,6.95
2022-12-10T07:02:03.107Z,6.63
2022-12-10T07:05:05.141Z,6.65
2022-12-10T07:08:07.156Z,6.37
2022-12-10T07:11:10.102Z,5.81
2022-12-10T07:14:15.315Z,6.40
2022-12-10T07:17:17.430Z,6.82
2022-12-10T07:20:19.734Z,6.81
2022-12-10T07:23:21.593Z,6.61
2022-12-10T07:26:23.468Z,7.18
2022-12-10T07:29:27.556Z,6.11
2022-12-10T07:32:29.391Z,6.10
2022-12-10T07:35:31.207Z,7.18
2022-12-10T07:38:33.063Z,7.37
2022-12-10T07:41:35.982Z,6.55
2022-12-10T07:44:37.910Z,6.75
2022-12-10T07:47:40.247Z,6.33
2022-12-10T07:50:42.159Z,6.86
2022-12-10T07:53:44.398Z,6.55
2022-12-10T07:56:46.457Z,6.30
2022-12-10T07:59:48.374Z,7.00
2022-12-10T08:02:50.266Z,5.98
2022-12-10T08:06:11.562Z,6.76
2022-12-10T08:09:13.408Z,7.25
2022-12-10T08:12:15.403Z,6.99
2022-12-10T08:15:17.492Z,6.78
2022-12-10T08:18:19.339Z,8.24
2022-12-10T08:21:22.291Z,7.42
2022-12-10T08:24:24.190Z,8.54
2022-12-10T08:27:26.181Z,8.01
2022-12-10T08:30:28.233Z,7.56
2022-12-10T08:33:30.155Z,7.67
2022-12-10T08:36:32.066Z,7.56
2022-12-10T08:39:34.569Z,7.40
2022-12-10T08:42:36.400Z,7.31
2022-12-10T08:45:38.290Z,8.81
2022-12-10T08:48:40.389Z,8.11
2022-12-10T08:51:42.296Z,8.19
2022-12-10T08:54:44.146Z,8.34
2022-12-10T08:57:46.115Z,7.35
2022-12-10T09:00:48.455Z,7.93
2022-12-10T09:03:51.290Z,8.50
2022-12-10T09:06:53.759Z,7.50
2022-12-10T09:09:55.636Z,7.88
2022-12-10T09:13:02.952Z,8.24
2022-12-10T09:16:05.977Z,8.63
2022-12-10T09:19:07.969Z,9.34
2022-12-10T09:22:09.793Z,7.81
2022-12-10T09:25:11.852Z,8.89
2022-12-10T09:28:13.824Z,7.78
2022-12-10T09:31:20.609Z,7.90
2022-12-10T09:34:22.892Z,7.54
2022-12-10T09:37:24.830Z,8.23
2022-12-10T09:40:35.497Z,8.40
2022-12-10T09:43:50.933Z,7.95
2022-12-10T09:46:53.783Z,7.71
2022-12-10T09:49:58.720Z,7.67
2022-12-10T09:53:00.600Z,8.81
2022-12-10T09:56:03.407Z,8.27
2022-12-10T09:59:07.792Z,8.08
2022-12-10T10:02:26.906Z,7.35
2022-12-10T10:05:29.808Z,7.55
2022-12-10T10:08:39.502Z,7.89
2022-12-10T10:11:41.394Z,7.76
2022-12-10T10:14:44.050Z,7.47
2022-12-10T10:17:46.740Z,8.05
2022-12-10T10:20:48.619Z,7.66
2022-12-10T10:23:51.008Z,7.67
2022-12-10T10:26:53.929Z,6.70
2022-12-10T10:29:58.267Z,7.18
2022-12-10T10:33:00.370Z,8.41
2022-12-10T10:36:05.766Z,8.27
2022-12-10T10:39:10.522Z,8.36
2022-12-10T10:42:12.670Z,7.91
2022-12-10T10:45:33.132Z,8.45
2022-12-10T10:48:35.254Z,8.16
2022-12-10T10:51:37.245Z,7.96
2022-12-10T10:54:40.036Z,7.30
2022-12-10T10:57:43.285Z,7.36
2022-12-10T11:00:53.714Z,8.33
2022-12-10T11:03:56.944Z,7.59
2022-12-10T11:07:01.229Z,8.13
2022-12-10T11:10:04.144Z,8.50
2022-12-10T11:13:07.800Z,7.89
2022-12-10T11:16:16.050Z,7.69
2022-12-10T11:19:21.855Z,7.71
2022-12-10T11:22:24.803Z,7.36
2022-12-10T11:25:34.410Z,7.98
2022-12-10T11:28:48.694Z,7.52
2022-12-10T11:32:14.147Z,6.84
2022-12-10T11:35:19.590Z,7.74
2022-12-10T11:38:21.407Z,7.51
2022-12-10T11:41:29.302Z,8.34
2022-12-10T11:44:31.193Z,8.44
2022-12-10T11:47:36.804Z,7.48
2022-12-10T11:50:48.851Z,7.41
2022-12-10T11:53:56.615Z,6.91
2022-12-10T11:56:58.372Z,7.31
2022-12-10T12:00:05.851Z,7.27
2022-12-10T12:03:11.165Z,7.62
2022-12-10T12:06:33.377Z,7.73
2022-12-10T12:09:41.201Z,7.40
2022-12-10T12:12:43.264Z,6.74
2022-12-10T12:15:46.413Z,7.37
2022-12-10T12:19:00.699Z,6.87
2022-12-10T12:22:05.896Z,6.76
2022-12-10T12:25:08.469Z,6.08
2022-12-10T12:28:30.852Z,6.41
2022-12-10T12:31:37.070Z,6.33
2022-12-10T12:34:42.251Z,6.71
2022-12-10T12:37:48.908Z,5.70
2022-12-10T12:40:54.733Z,6.83
2022-12-10T12:44:05.562Z,6.17
2022-12-10T12:47:26.573Z,6.59
2022-12-10T12:50:40.886Z,6.33
2022-12-10T12:53:42.822Z,6.88
2022-12-10T12:56:47.845Z,6.37
2022-12-10T12:59:55.022Z,6.70
2022-12-10T13:03:00.024Z,6.89
2022-12-10T13:06:22.061Z,6.69
2022-12-10T13:09:27.888Z,6.87
2022-12-10T13:12:30.951Z,6.43
2022-12-10T13:15:36.425Z,6.61
2022-12-10T13:18:39.214Z,6.31
2022-12-10T13:21:57.873Z,5.81
2022-12-10T13:25:12.554Z,6.33
2022-12-10T13:28:22.247Z,6.55
2022-12-10T13:31:33.454Z,6.86
2022-12-10T13:34:36.194Z,6.02
2022-12-10T13:37:50.001Z,5.91
2022-12-10T13:41:19.387Z,6.90
2022-12-10T13:44:36.686Z,6.74
2022-12-10T13:47:38.553Z,5.92
2022-12-10T13:51:02.387Z,6.10
2022-12-10T13:54:23.148Z,6.08
2022-12-10T13:57:43.210Z,6.18
2022-12-10T14:01:07.692Z,5.72
2022-12-10T14:04:38.828Z,6.13
2022-12-10T14:07:41.299Z,6.44
2022-12-10T14:10:43.334Z,6.32
2022-12-10T14:13:46.284Z,6.01
2022-12-10T14:16:48.128Z,6.49
2022-12-10T14:19:50.861Z,6.37
2022-12-10T14:22:53.908Z,6.07
2022-12-10T14:25:56.147Z,7.00
2022-12-10T14:28:59.320Z,6.24
2022-12-10T14:32:01.226Z,6.05
2022-12-10T14:35:04.645Z,5.30
2022-12-10T14:38:06.850Z,5.41
2022-12-10T14:41:08.682Z,6.76
2022-12-10T14:44:12.583Z,5.82
2022-12-10T14:47:18.187Z,6.56
2022-12-10T14:50:20.105Z,6.55
2022-12-10T14:53:28.768Z,6.22
2022-12-10T14:56:35.340Z,6.80
2022-12-10T14:59:41.866Z,6.08
2022-12-10T15:02:45.401Z,5.72
2022-12-10T15:05:54.249Z,5.68
2022-12-10T15:08:57.109Z,6.66
2022-12-10T15:12:00.136Z,6.53
2022-12-10T15:15:22.223Z,6.70
2022-12-10T15:18:35.211Z,6.11
2022-12-10T15:21:46.630Z,6.12
2022-12-10T15:24:48.798Z,6.42
2022-12-10T15:28:13.979Z,5.84
2022-12-10T15:31:27.971Z,6.10
2022-12-10T15:34:30.378Z,6.24
2022-12-10T15:37:36.113Z,5.77
2022-12-10T15:40:38.331Z,6.04
2022-12-10T15:43:40.321Z,6.28
2022-12-10T15:46:52.155Z,5.56
2022-12-10T15:49:55.393Z,6.18
2022-12-10T15:52:57.293Z,5.69
2022-12-10T15:55:59.131Z,6.07
2022-12-10T15:59:00.980Z,5.68
2022-12-10T16:02:04.139Z,5.84
2022-12-10T16:05:12.181Z,6.85
2022-12-10T16:08:18.788Z,6.24
2022-12-10T16:11:20.926Z,5.96
2022-12-10T16:14:22.925Z,6.21
2022-12-10T16:17:24.753Z,5.88
2022-12-10T16:20:27.879Z,5.52
2022-12-10T16:23:29.742Z,6.41
2022-12-10T16:26:31.772Z,5.96
2022-12-10T16:29:33.821Z,7.01
2022-12-10T16:32:35.807Z,5.80
2022-12-10T16:35:38.024Z,6.27
2022-12-10T16:38:40.393Z,6.39
2022-12-10T16:41:42.492Z,6.56
2022-12-10T16:44:44.364Z,6.66
2022-12-10T16:47:46.397Z,5.70
2022-12-10T16:50:48.899Z,6.31
2022-12-10T16:53:50.836Z,6.02
2022-12-10T16:56:52.676Z,6.60
2022-12-10T16:59:54.601Z,6.67
2022-12-10T17:03:03.020Z,5.94
2022-12-10T17:06:07.425Z,6.46
2022-12-10T17:09:09.506Z,6.99
2022-12-10T17:12:11.606Z,6.33
2022-12-10T17:15:17.205Z,6.57
2022-12-10T17:18:19.608Z,6.20
2022-12-10T17:21:22.594Z,6.75
2022-12-10T17:24:24.562Z,6.48
2022-12-10T17:27:26.567Z,6.90
2022-12-10T17:30:28.377Z,6.33
2022-12-10T17:33:30.625Z,6.07
2022-12-10T17:36:32.701Z,5.62
2022-12-10T17:39:34.570Z,5.55
2022-12-10T17:42:36.469Z,5.57
2022-12-10T17:45:38.670Z,5.63
2022-12-10T17:48:41.139Z,6.26
2022-12-10T17:51:43.545Z,6.59
2022-12-10T17:54:45.670Z,6.36
2022-12-10T17:57:47.523Z,6.62
2022-12-10T18:00:49.918Z,6.46
2022-12-10T18:03:51.808Z,5.79
2022-12-10T18:06:53.658Z,6.20
2022-12-10T18:09:55.543Z,6.91
2022-12-10T18:12:57.731Z,5.58
2022-12-10T18:15:59.760Z,5.53
2022-12-10T18:19:02.984Z,6.03
2022-12-10T18:22:04.832Z,6.19
2022-12-10T18:25:07.005Z,6.72
2022-12-10T18:28:25.831Z,6.84
2022-12-10T18:31:29.290Z,6.51
2022-12-10T18:34:31.341Z,6.43
2022-12-10T18:37:33.337Z,6.58
2022-12-10T18:40:35.287Z,6.08
2022-12-10T18:43:37.115Z,7.33
2022-12-10T18:46:39.664Z,6.44
2022-12-10T18:49:41.609Z,6.98
2022-12-10T18:52:43.460Z,6.86
2022-12-10T18:55:45.368Z,6.62
2022-12-10T18:58:47.545Z,6.61
2022-12-10T19:01:49.397Z,6.15
2022-12-10T19:04:51.335Z,6.89
2022-12-10T19:07:53.452Z,7.04
2022-12-10T19:10:55.797Z,7.43
2022-12-10T19:13:57.869Z,6.34
2022-12-10T19:17:01.402Z,6.68
2022-12-10T19:20:03.610Z,6.95
2022-12-10T19:23:05.549Z,6.51
2022-12-10T19:26:14.651Z,6.68
2022-12-10T19:29:18.166Z,7.24
2022-12-10T19:32:19.975Z,6.55
2022-12-10T19:35:23.538Z,6.57
2022-12-10T19:38:25.449Z,7.18
2022-12-10T19:41:27.378Z,6.69
2022-12-10T19:44:29.378Z,7.35
2022-12-10T19:47:31.288Z,7.46
2022-12-10T19:50:36.144Z,7.54
2022-12-10T19:53:39.266Z,6.02
2022-12-10T19:56:41.181Z,6.52
2022-12-10T19:59:43.274Z,7.25
2022-12-10T20:02:45.727Z,6.91
2022-12-10T20:05:47.676Z,6.71
2022-12-10T20:08:49.622Z,6.10
2022-12-10T20:11:51.868Z,6.09
2022-12-10T20:14:53.692Z,6.38
2022-12-10T20:17:55.793Z,6.98
2022-12-10T20:20:57.851Z,7.25
2022-12-10T20:24:03.195Z,6.55
2022-12-10T20:27:05.507Z,6.30
2022-12-10T20:30:07.618Z,6.86
2022-12-10T20:33:44.371Z,6.55
2022-12-10T20:36:31.377Z,6.39
2022-12-10T20:39:33.788Z,6.18
2022-12-10T20:42:35.595Z,6.33
2022-12-10T20:45:37.705Z,6.77
2022-12-10T20:48:39.587Z,7.15
2022-12-10T20:51:41.723Z,6.72
2022-12-10T20:54:43.589Z,6.58
2022-12-10T20:57:45.545Z,6.59
2022-12-10T21:00:47.407Z,6.42
2022-12-10T21:03:49.561Z,6.04
2022-12-10T21:06:51.398Z,6.41
2022-12-10T21:09:53.259Z,6.43
2022-12-10T21:12:55.186Z,6.43
2022-12-10T21:15:58.841Z,6.46
2022-12-10T21:19:00.928Z,6.27
2022-12-10T21:22:02.892Z,5.82
2022-12-10T21:25:05.133Z,6.24
2022-12-10T21:28:07.149Z,6.51
2022-12-10T21:31:24.897Z,6.03
2022-12-10T21:34:26.824Z,6.75
2022-12-10T21:37:28.651Z,6.28
2022-12-10T21:40:30.781Z,6.28
2022-12-10T21:43:32.673Z,6.39
2022-12-10T21:46:34.882Z,6.01
2022-12-10T21:49:36.867Z,5.80
2022-12-10T21:52:39.298Z,5.87
2022-12-10T21:55:43.620Z,6.14
2022-12-10T21:58:45.550Z,6.42
2022-12-10T22:01:47.485Z,5.89
2022-12-10T22:04:50.052Z,6.19
2022-12-10T22:07:51.967Z,5.63
2022-12-10T22:10:53.983Z,5.89
2022-12-10T22:13:56.000Z,6.41
2022-12-10T22:16:57.860Z,6.11
2022-12-10T22:19:59.746Z,5.62
2022-12-10T22:23:01.643Z,6.09
2022-12-10T22:26:07.181Z,6.06
2022-12-10T22:29:09.005Z,5.36
2022-12-10T22:32:10.972Z,5.80
2022-12-10T22:35:13.079Z,5.04
2022-12-10T22:38:15.065Z,5.50
2022-12-10T22:41:17.131Z,5.75
2022-12-10T22:44:21.881Z,5.15
2022-12-10T22:47:23.891Z,5.42
2022-12-10T22:50:25.782Z,5.48
2022-12-10T22:53:27.705Z,5.66
2022-12-10T22:56:30.013Z,5.62
2022-12-10T22:59:32.011Z,5.95
2022-12-10T23:02:33.897Z,5.67
2022-12-10T23:05:36.082Z,5.28
2022-12-10T23:08:37.949Z,5.12
2022-12-10T23:11:59.951Z,5.63
2022-12-10T23:15:02.056Z,5.48
2022-12-10T23:18:04.063Z,5.95
2022-12-10T23:21:16.179Z,5.98
2022-12-10T23:24:18.043Z,5.74
2022-12-10T23:27:20.292Z,5.27
2022-12-10T23:30:22.433Z,5.84
2022-12-10T23:33:24.254Z,5.73
2022-12-10T23:36:26.252Z,5.34
2022-12-10T23:39:28.200Z,5.12
2022-12-10T23:42:30.625Z,5.74
2022-12-10T23:45:32.528Z,5.42
2022-12-10T23:48:34.395Z,5.23
2022-12-10T23:51:36.246Z,5.31
2022-12-10T23:54:38.107Z,5.43
2022-12-10T23:57:40.059Z,5.37
